sensor_id;sensor_type;location;lat;lon;timestamp;P1;durP1;ratioP1;P2;durP2;ratioP2
19167;SDS011;9716;53.114;18.040;2023-06-22T00:01:02;7.43;;;4.85;;
19167;SDS011;9716;53.114;18.040;2023-06-22T00:03:32;9.18;;;5.13;;
19167;SDS011;9716;53.114;18.040;2023-06-22T00:06:00;9.15;;;5.15;;
19167;SDS011;9716;53.114;18.040;2023-06-22T00:08:30;7.28;;;5.05;;
19167;SDS011;9716;53.114;18.040;2023-06-22T00:10:58;7.38;;;4.88;;
19167;SDS011;9716;53.114;18.040;2023-06-22T00:13:27;7.15;;;4.72;;
19167;SDS011;9716;53.114;18.040;2023-06-22T00:15:55;8.38;;;4.95;;
19167;SDS011;9716;53.114;18.040;2023-06-22T00:18:24;8.57;;;4.50;;
19167;SDS011;9716;53.114;18.040;2023-06-22T00:20:54;8.30;;;4.90;;
19167;SDS011;9716;53.114;18.040;2023-06-22T00:23:25;9.73;;;5.47;;
19167;SDS011;9716;53.114;18.040;2023-06-22T00:25:55;9.00;;;5.30;;
19167;SDS011;9716;53.114;18.040;2023-06-22T00:28:24;8.35;;;5.35;;
19167;SDS011;9716;53.114;18.040;2023-06-22T00:30:53;10.18;;;4.45;;
19167;SDS011;9716;53.114;18.040;2023-06-22T00:33:21;7.25;;;4.80;;
19167;SDS011;9716;53.114;18.040;2023-06-22T00:35:50;9.02;;;5.45;;
19167;SDS011;9716;53.114;18.040;2023-06-22T00:38:19;10.50;;;5.05;;
19167;SDS011;9716;53.114;18.040;2023-06-22T00:40:48;7.03;;;5.35;;
19167;SDS011;9716;53.114;18.040;2023-06-22T00:43:18;6.13;;;4.93;;
19167;SDS011;9716;53.114;18.040;2023-06-22T00:45:46;16.10;;;4.63;;
19167;SDS011;9716;53.114;18.040;2023-06-22T00:48:15;6.57;;;4.45;;
19167;SDS011;9716;53.114;18.040;2023-06-22T00:50:44;7.20;;;4.63;;
19167;SDS011;9716;53.114;18.040;2023-06-22T00:53:13;7.57;;;5.13;;
19167;SDS011;9716;53.114;18.040;2023-06-22T00:55:44;7.60;;;5.05;;
19167;SDS011;9716;53.114;18.040;2023-06-22T00:58:14;10.07;;;4.80;;
19167;SDS011;9716;53.114;18.040;2023-06-22T01:00:44;8.93;;;4.82;;
19167;SDS011;9716;53.114;18.040;2023-06-22T01:03:12;6.90;;;4.40;;
19167;SDS011;9716;53.114;18.040;2023-06-22T01:05:43;8.85;;;5.07;;
19167;SDS011;9716;53.114;18.040;2023-06-22T01:08:21;8.52;;;5.43;;
19167;SDS011;9716;53.114;18.040;2023-06-22T01:11:00;9.38;;;4.60;;
19167;SDS011;9716;53.114;18.040;2023-06-22T01:13:35;10.35;;;5.68;;
19167;SDS011;9716;53.114;18.040;2023-06-22T01:16:10;10.25;;;5.68;;
19167;SDS011;9716;53.114;18.040;2023-06-22T01:18:44;7.28;;;4.82;;
19167;SDS011;9716;53.114;18.040;2023-06-22T01:21:15;9.50;;;5.55;;
19167;SDS011;9716;53.114;18.040;2023-06-22T01:23:50;9.30;;;5.13;;
19167;SDS011;9716;53.114;18.040;2023-06-22T01:26:28;6.80;;;5.00;;
19167;SDS011;9716;53.114;18.040;2023-06-22T01:29:05;8.52;;;5.35;;
19167;SDS011;9716;53.114;18.040;2023-06-22T01:31:35;8.80;;;4.80;;
19167;SDS011;9716;53.114;18.040;2023-06-22T01:34:05;11.40;;;5.40;;
19167;SDS011;9716;53.114;18.040;2023-06-22T01:36:34;9.38;;;5.38;;
19167;SDS011;9716;53.114;18.040;2023-06-22T01:39:04;7.10;;;4.63;;
19167;SDS011;9716;53.114;18.040;2023-06-22T01:41:34;8.00;;;5.13;;
19167;SDS011;9716;53.114;18.040;2023-06-22T01:44:06;7.90;;;5.03;;
19167;SDS011;9716;53.114;18.040;2023-06-22T01:46:36;6.95;;;4.30;;
19167;SDS011;9716;53.114;18.040;2023-06-22T01:49:06;8.75;;;4.80;;
19167;SDS011;9716;53.114;18.040;2023-06-22T01:51:34;11.85;;;4.82;;
19167;SDS011;9716;53.114;18.040;2023-06-22T01:54:05;6.95;;;4.80;;
19167;SDS011;9716;53.114;18.040;2023-06-22T01:56:34;9.75;;;4.78;;
19167;SDS011;9716;53.114;18.040;2023-06-22T01:59:04;6.72;;;4.55;;
19167;SDS011;9716;53.114;18.040;2023-06-22T02:01:40;11.25;;;4.85;;
19167;SDS011;9716;53.114;18.040;2023-06-22T02:04:12;7.72;;;4.82;;
19167;SDS011;9716;53.114;18.040;2023-06-22T02:06:44;7.93;;;4.65;;
19167;SDS011;9716;53.114;18.040;2023-06-22T02:09:16;6.10;;;3.90;;
19167;SDS011;9716;53.114;18.040;2023-06-22T02:11:47;7.35;;;4.63;;
19167;SDS011;9716;53.114;18.040;2023-06-22T02:14:23;8.90;;;4.53;;
19167;SDS011;9716;53.114;18.040;2023-06-22T02:16:52;6.72;;;4.40;;
19167;SDS011;9716;53.114;18.040;2023-06-22T02:19:22;10.52;;;4.40;;
19167;SDS011;9716;53.114;18.040;2023-06-22T02:21:51;6.22;;;3.78;;
19167;SDS011;9716;53.114;18.040;2023-06-22T02:24:20;5.70;;;3.75;;
19167;SDS011;9716;53.114;18.040;2023-06-22T02:26:50;8.77;;;4.40;;
19167;SDS011;9716;53.114;18.040;2023-06-22T02:29:18;5.57;;;3.95;;
19167;SDS011;9716;53.114;18.040;2023-06-22T02:31:49;7.10;;;4.43;;
19167;SDS011;9716;53.114;18.040;2023-06-22T02:34:17;6.57;;;4.07;;
19167;SDS011;9716;53.114;18.040;2023-06-22T02:36:46;13.77;;;4.90;;
19167;SDS011;9716;53.114;18.040;2023-06-22T02:39:19;7.35;;;4.07;;
19167;SDS011;9716;53.114;18.040;2023-06-22T02:41:49;7.88;;;4.78;;
19167;SDS011;9716;53.114;18.040;2023-06-22T02:44:18;9.02;;;4.63;;
19167;SDS011;9716;53.114;18.040;2023-06-22T02:46:49;7.03;;;4.40;;
19167;SDS011;9716;53.114;18.040;2023-06-22T02:49:17;7.85;;;4.18;;
19167;SDS011;9716;53.114;18.040;2023-06-22T02:51:46;7.72;;;4.45;;
19167;SDS011;9716;53.114;18.040;2023-06-22T02:54:16;6.63;;;4.80;;
19167;SDS011;9716;53.114;18.040;2023-06-22T02:56:44;6.22;;;4.13;;
19167;SDS011;9716;53.114;18.040;2023-06-22T02:59:13;6.68;;;4.30;;
19167;SDS011;9716;53.114;18.040;2023-06-22T03:01:41;8.05;;;4.53;;
19167;SDS011;9716;53.114;18.040;2023-06-22T03:04:12;6.68;;;4.25;;
19167;SDS011;9716;53.114;18.040;2023-06-22T03:06:42;8.25;;;3.85;;
19167;SDS011;9716;53.114;18.040;2023-06-22T03:09:10;7.50;;;4.05;;
19167;SDS011;9716;53.114;18.040;2023-06-22T03:11:38;4.70;;;3.65;;
19167;SDS011;9716;53.114;18.040;2023-06-22T03:14:07;5.97;;;4.15;;
19167;SDS011;9716;53.114;18.040;2023-06-22T03:16:35;6.75;;;3.72;;
19167;SDS011;9716;53.114;18.040;2023-06-22T03:19:04;5.60;;;4.05;;
19167;SDS011;9716;53.114;18.040;2023-06-22T03:21:34;6.10;;;3.80;;
19167;SDS011;9716;53.114;18.040;2023-06-22T03:24:05;7.22;;;3.85;;
19167;SDS011;9716;53.114;18.040;2023-06-22T03:26:34;5.20;;;3.42;;
19167;SDS011;9716;53.114;18.040;2023-06-22T03:29:03;6.72;;;4.18;;
19167;SDS011;9716;53.114;18.040;2023-06-22T03:31:31;5.13;;;3.25;;
19167;SDS011;9716;53.114;18.040;2023-06-22T03:34:00;4.97;;;3.38;;
19167;SDS011;9716;53.114;18.040;2023-06-22T03:36:28;7.70;;;2.80;;
19167;SDS011;9716;53.114;18.040;2023-06-22T03:38:58;4.60;;;3.40;;
19167;SDS011;9716;53.114;18.040;2023-06-22T03:41:26;6.63;;;3.72;;
19167;SDS011;9716;53.114;18.040;2023-06-22T03:43:55;5.43;;;3.22;;
19167;SDS011;9716;53.114;18.040;2023-06-22T03:46:23;6.03;;;3.03;;
19167;SDS011;9716;53.114;18.040;2023-06-22T03:48:52;5.18;;;3.63;;
19167;SDS011;9716;53.114;18.040;2023-06-22T03:51:20;3.85;;;3.05;;
19167;SDS011;9716;53.114;18.040;2023-06-22T03:53:49;4.55;;;2.65;;
19167;SDS011;9716;53.114;18.040;2023-06-22T03:56:19;4.78;;;2.97;;
19167;SDS011;9716;53.114;18.040;2023-06-22T03:58:47;4.70;;;2.95;;
19167;SDS011;9716;53.114;18.040;2023-06-22T04:01:16;9.18;;;3.10;;
19167;SDS011;9716;53.114;18.040;2023-06-22T04:03:45;7.97;;;3.60;;
19167;SDS011;9716;53.114;18.040;2023-06-22T04:06:15;4.95;;;3.53;;
19167;SDS011;9716;53.114;18.040;2023-06-22T04:08:44;6.38;;;2.83;;
19167;SDS011;9716;53.114;18.040;2023-06-22T04:11:19;5.57;;;3.00;;
19167;SDS011;9716;53.114;18.040;2023-06-22T04:13:48;5.38;;;2.90;;
19167;SDS011;9716;53.114;18.040;2023-06-22T04:16:18;5.55;;;2.83;;
19167;SDS011;9716;53.114;18.040;2023-06-22T04:18:46;3.42;;;2.72;;
19167;SDS011;9716;53.114;18.040;2023-06-22T04:21:15;4.40;;;2.58;;
19167;SDS011;9716;53.114;18.040;2023-06-22T04:23:46;4.28;;;2.92;;
19167;SDS011;9716;53.114;18.040;2023-06-22T04:26:15;4.72;;;2.60;;
19167;SDS011;9716;53.114;18.040;2023-06-22T04:28:45;2.72;;;2.08;;
19167;SDS011;9716;53.114;18.040;2023-06-22T04:31:18;11.40;;;2.67;;
19167;SDS011;9716;53.114;18.040;2023-06-22T04:33:47;2.53;;;2.17;;
19167;SDS011;9716;53.114;18.040;2023-06-22T04:36:17;3.78;;;2.60;;
19167;SDS011;9716;53.114;18.040;2023-06-22T04:38:50;2.90;;;2.47;;
19167;SDS011;9716;53.114;18.040;2023-06-22T04:41:19;4.63;;;2.47;;
19167;SDS011;9716;53.114;18.040;2023-06-22T04:43:52;4.10;;;2.63;;
19167;SDS011;9716;53.114;18.040;2023-06-22T04:46:21;3.08;;;2.28;;
19167;SDS011;9716;53.114;18.040;2023-06-22T04:48:49;4.80;;;2.80;;
19167;SDS011;9716;53.114;18.040;2023-06-22T04:51:18;4.03;;;2.00;;
19167;SDS011;9716;53.114;18.040;2023-06-22T04:53:48;13.13;;;2.85;;
19167;SDS011;9716;53.114;18.040;2023-06-22T04:56:17;2.53;;;1.70;;
19167;SDS011;9716;53.114;18.040;2023-06-22T04:58:48;2.17;;;1.80;;
19167;SDS011;9716;53.114;18.040;2023-06-22T05:01:19;4.70;;;2.20;;
19167;SDS011;9716;53.114;18.040;2023-06-22T05:03:49;5.20;;;2.17;;
19167;SDS011;9716;53.114;18.040;2023-06-22T05:06:22;3.05;;;2.08;;
19167;SDS011;9716;53.114;18.040;2023-06-22T05:08:52;8.80;;;2.47;;
19167;SDS011;9716;53.114;18.040;2023-06-22T05:11:24;3.70;;;2.45;;
19167;SDS011;9716;53.114;18.040;2023-06-22T05:13:53;3.58;;;2.45;;
19167;SDS011;9716;53.114;18.040;2023-06-22T05:16:23;4.38;;;2.47;;
19167;SDS011;9716;53.114;18.040;2023-06-22T05:18:52;10.63;;;2.72;;
19167;SDS011;9716;53.114;18.040;2023-06-22T05:21:22;6.20;;;2.20;;
19167;SDS011;9716;53.114;18.040;2023-06-22T05:23:52;8.77;;;2.20;;
19167;SDS011;9716;53.114;18.040;2023-06-22T05:26:21;2.97;;;2.55;;
19167;SDS011;9716;53.114;18.040;2023-06-22T05:28:50;4.80;;;2.35;;
19167;SDS011;9716;53.114;18.040;2023-06-22T05:31:18;7.72;;;2.22;;
19167;SDS011;9716;53.114;18.040;2023-06-22T05:33:50;3.47;;;2.25;;
19167;SDS011;9716;53.114;18.040;2023-06-22T05:36:19;5.15;;;1.98;;
19167;SDS011;9716;53.114;18.040;2023-06-22T05:38:51;3.30;;;1.90;;
19167;SDS011;9716;53.114;18.040;2023-06-22T05:41:20;8.02;;;2.70;;
19167;SDS011;9716;53.114;18.040;2023-06-22T05:43:49;8.73;;;2.33;;
19167;SDS011;9716;53.114;18.040;2023-06-22T05:46:17;3.97;;;2.38;;
19167;SDS011;9716;53.114;18.040;2023-06-22T05:48:47;5.38;;;2.30;;
19167;SDS011;9716;53.114;18.040;2023-06-22T05:51:16;3.80;;;2.40;;
19167;SDS011;9716;53.114;18.040;2023-06-22T05:53:45;2.65;;;1.98;;
19167;SDS011;9716;53.114;18.040;2023-06-22T05:56:31;4.13;;;2.05;;
19167;SDS011;9716;53.114;18.040;2023-06-22T05:59:00;2.47;;;1.70;;
19167;SDS011;9716;53.114;18.040;2023-06-22T06:01:28;6.97;;;2.20;;
19167;SDS011;9716;53.114;18.040;2023-06-22T06:04:03;4.45;;;2.10;;
19167;SDS011;9716;53.114;18.040;2023-06-22T06:06:34;5.28;;;2.10;;
19167;SDS011;9716;53.114;18.040;2023-06-22T06:09:04;3.58;;;2.08;;
19167;SDS011;9716;53.114;18.040;2023-06-22T06:11:34;2.50;;;1.75;;
19167;SDS011;9716;53.114;18.040;2023-06-22T06:14:02;3.63;;;2.13;;
19167;SDS011;9716;53.114;18.040;2023-06-22T06:16:31;3.88;;;2.40;;
19167;SDS011;9716;53.114;18.040;2023-06-22T06:19:00;6.03;;;2.03;;
19167;SDS011;9716;53.114;18.040;2023-06-22T06:21:29;3.53;;;2.15;;
19167;SDS011;9716;53.114;18.040;2023-06-22T06:23:58;3.13;;;1.70;;
19167;SDS011;9716;53.114;18.040;2023-06-22T06:26:27;2.50;;;2.28;;
19167;SDS011;9716;53.114;18.040;2023-06-22T06:28:56;2.78;;;1.98;;
19167;SDS011;9716;53.114;18.040;2023-06-22T06:31:25;4.60;;;2.35;;
19167;SDS011;9716;53.114;18.040;2023-06-22T06:33:55;2.22;;;1.73;;
19167;SDS011;9716;53.114;18.040;2023-06-22T06:36:24;3.10;;;1.75;;
19167;SDS011;9716;53.114;18.040;2023-06-22T06:38:54;3.97;;;1.52;;
19167;SDS011;9716;53.114;18.040;2023-06-22T06:41:23;1.42;;;1.33;;
19167;SDS011;9716;53.114;18.040;2023-06-22T06:43:52;2.92;;;2.03;;
19167;SDS011;9716;53.114;18.040;2023-06-22T06:46:21;2.25;;;2.03;;
19167;SDS011;9716;53.114;18.040;2023-06-22T06:48:49;4.45;;;2.10;;
19167;SDS011;9716;53.114;18.040;2023-06-22T06:51:18;3.53;;;2.20;;
19167;SDS011;9716;53.114;18.040;2023-06-22T06:53:46;3.17;;;1.63;;
19167;SDS011;9716;53.114;18.040;2023-06-22T06:56:17;3.85;;;1.58;;
19167;SDS011;9716;53.114;18.040;2023-06-22T06:58:45;4.28;;;1.70;;
19167;SDS011;9716;53.114;18.040;2023-06-22T07:01:14;2.13;;;1.90;;
19167;SDS011;9716;53.114;18.040;2023-06-22T07:03:42;2.88;;;1.55;;
19167;SDS011;9716;53.114;18.040;2023-06-22T07:06:11;3.85;;;1.73;;
19167;SDS011;9716;53.114;18.040;2023-06-22T07:08:41;2.53;;;1.65;;
19167;SDS011;9716;53.114;18.040;2023-06-22T07:11:09;2.17;;;1.52;;
19167;SDS011;9716;53.114;18.040;2023-06-22T07:13:39;1.58;;;1.48;;
19167;SDS011;9716;53.114;18.040;2023-06-22T07:16:07;4.15;;;1.73;;
19167;SDS011;9716;53.114;18.040;2023-06-22T07:18:36;4.78;;;1.80;;
19167;SDS011;9716;53.114;18.040;2023-06-22T07:21:04;1.70;;;1.30;;
19167;SDS011;9716;53.114;18.040;2023-06-22T07:23:34;4.18;;;1.98;;
19167;SDS011;9716;53.114;18.040;2023-06-22T07:26:02;2.45;;;1.40;;
19167;SDS011;9716;53.114;18.040;2023-06-22T07:28:33;1.85;;;1.40;;
19167;SDS011;9716;53.114;18.040;2023-06-22T07:31:05;3.08;;;1.70;;
19167;SDS011;9716;53.114;18.040;2023-06-22T07:33:34;1.73;;;1.63;;
19167;SDS011;9716;53.114;18.040;2023-06-22T07:36:02;1.42;;;1.25;;
19167;SDS011;9716;53.114;18.040;2023-06-22T07:38:34;2.20;;;1.50;;
19167;SDS011;9716;53.114;18.040;2023-06-22T07:41:03;3.38;;;1.17;;
19167;SDS011;9716;53.114;18.040;2023-06-22T07:43:32;2.47;;;1.30;;
19167;SDS011;9716;53.114;18.040;2023-06-22T07:46:22;4.47;;;1.70;;
19167;SDS011;9716;53.114;18.040;2023-06-22T07:48:51;3.38;;;1.45;;
19167;SDS011;9716;53.114;18.040;2023-06-22T07:51:22;1.95;;;1.30;;
19167;SDS011;9716;53.114;18.040;2023-06-22T07:53:51;1.92;;;1.20;;
19167;SDS011;9716;53.114;18.040;2023-06-22T07:56:20;1.15;;;1.05;;
19167;SDS011;9716;53.114;18.040;2023-06-22T07:58:48;7.78;;;1.48;;
19167;SDS011;9716;53.114;18.040;2023-06-22T08:01:17;2.30;;;1.60;;
19167;SDS011;9716;53.114;18.040;2023-06-22T08:03:49;2.30;;;1.15;;
19167;SDS011;9716;53.114;18.040;2023-06-22T08:06:18;4.78;;;1.63;;
19167;SDS011;9716;53.114;18.040;2023-06-22T08:08:47;2.67;;;1.48;;
19167;SDS011;9716;53.114;18.040;2023-06-22T08:11:15;7.90;;;1.85;;
19167;SDS011;9716;53.114;18.040;2023-06-22T08:13:44;2.38;;;1.45;;
19167;SDS011;9716;53.114;18.040;2023-06-22T08:16:12;2.60;;;1.30;;
19167;SDS011;9716;53.114;18.040;2023-06-22T08:18:41;3.50;;;1.45;;
19167;SDS011;9716;53.114;18.040;2023-06-22T08:21:11;1.85;;;1.55;;
19167;SDS011;9716;53.114;18.040;2023-06-22T08:23:40;3.03;;;1.77;;
19167;SDS011;9716;53.114;18.040;2023-06-22T08:26:08;1.10;;;1.00;;
19167;SDS011;9716;53.114;18.040;2023-06-22T08:28:37;13.82;;;1.77;;
19167;SDS011;9716;53.114;18.040;2023-06-22T08:31:05;5.93;;;1.45;;
19167;SDS011;9716;53.114;18.040;2023-06-22T08:33:34;1.98;;;1.65;;
19167;SDS011;9716;53.114;18.040;2023-06-22T08:36:02;1.88;;;1.35;;
19167;SDS011;9716;53.114;18.040;2023-06-22T08:38:34;2.53;;;1.38;;
19167;SDS011;9716;53.114;18.040;2023-06-22T08:41:02;1.20;;;1.10;;
19167;SDS011;9716;53.114;18.040;2023-06-22T08:43:31;2.22;;;1.23;;
19167;SDS011;9716;53.114;18.040;2023-06-22T08:45:59;2.22;;;1.23;;
19167;SDS011;9716;53.114;18.040;2023-06-22T08:48:29;1.83;;;1.25;;
19167;SDS011;9716;53.114;18.040;2023-06-22T08:50:57;1.30;;;1.20;;
19167;SDS011;9716;53.114;18.040;2023-06-22T08:53:26;3.15;;;1.92;;
19167;SDS011;9716;53.114;18.040;2023-06-22T08:55:56;2.53;;;1.20;;
19167;SDS011;9716;53.114;18.040;2023-06-22T08:58:25;3.05;;;2.03;;
19167;SDS011;9716;53.114;18.040;2023-06-22T09:00:53;2.58;;;1.05;;
19167;SDS011;9716;53.114;18.040;2023-06-22T09:03:22;6.95;;;1.30;;
19167;SDS011;9716;53.114;18.040;2023-06-22T09:05:53;1.20;;;1.10;;
19167;SDS011;9716;53.114;18.040;2023-06-22T09:08:22;5.05;;;1.55;;
19167;SDS011;9716;53.114;18.040;2023-06-22T09:10:50;1.55;;;1.27;;
19167;SDS011;9716;53.114;18.040;2023-06-22T09:13:20;2.85;;;1.50;;
19167;SDS011;9716;53.114;18.040;2023-06-22T09:15:49;1.20;;;1.10;;
19167;SDS011;9716;53.114;18.040;2023-06-22T09:18:19;1.35;;;1.17;;
19167;SDS011;9716;53.114;18.040;2023-06-22T09:20:47;1.55;;;1.13;;
19167;SDS011;9716;53.114;18.040;2023-06-22T09:23:16;3.90;;;1.30;;
19167;SDS011;9716;53.114;18.040;2023-06-22T09:25:44;4.75;;;1.80;;
19167;SDS011;9716;53.114;18.040;2023-06-22T09:28:14;1.85;;;1.27;;
19167;SDS011;9716;53.114;18.040;2023-06-22T09:30:44;2.78;;;1.55;;
19167;SDS011;9716;53.114;18.040;2023-06-22T09:33:13;2.22;;;1.20;;
19167;SDS011;9716;53.114;18.040;2023-06-22T09:35:41;3.72;;;1.27;;
19167;SDS011;9716;53.114;18.040;2023-06-22T09:38:10;1.98;;;1.35;;
19167;SDS011;9716;53.114;18.040;2023-06-22T09:40:38;1.58;;;1.10;;
19167;SDS011;9716;53.114;18.040;2023-06-22T09:43:07;2.05;;;1.25;;
19167;SDS011;9716;53.114;18.040;2023-06-22T09:45:35;1.80;;;1.23;;
19167;SDS011;9716;53.114;18.040;2023-06-22T09:48:05;2.97;;;1.45;;
19167;SDS011;9716;53.114;18.040;2023-06-22T09:50:34;1.73;;;1.23;;
19167;SDS011;9716;53.114;18.040;2023-06-22T09:53:02;1.30;;;1.20;;
19167;SDS011;9716;53.114;18.040;2023-06-22T09:55:30;1.55;;;1.20;;
19167;SDS011;9716;53.114;18.040;2023-06-22T09:57:59;1.30;;;0.95;;
19167;SDS011;9716;53.114;18.040;2023-06-22T10:00:28;1.95;;;1.20;;
19167;SDS011;9716;53.114;18.040;2023-06-22T10:02:57;3.42;;;1.33;;
19167;SDS011;9716;53.114;18.040;2023-06-22T10:05:28;1.40;;;1.15;;
19167;SDS011;9716;53.114;18.040;2023-06-22T10:07:59;1.27;;;1.10;;
19167;SDS011;9716;53.114;18.040;2023-06-22T10:10:27;4.47;;;1.40;;
19167;SDS011;9716;53.114;18.040;2023-06-22T10:12:57;0.98;;;0.88;;
19167;SDS011;9716;53.114;18.040;2023-06-22T10:15:30;1.10;;;0.98;;
19167;SDS011;9716;53.114;18.040;2023-06-22T10:17:59;2.80;;;1.30;;
19167;SDS011;9716;53.114;18.040;2023-06-22T10:20:28;3.33;;;1.42;;
19167;SDS011;9716;53.114;18.040;2023-06-22T10:22:57;1.30;;;0.98;;
19167;SDS011;9716;53.114;18.040;2023-06-22T10:25:26;1.25;;;1.02;;
19167;SDS011;9716;53.114;18.040;2023-06-22T10:27:55;1.88;;;1.30;;
19167;SDS011;9716;53.114;18.040;2023-06-22T10:30:23;3.50;;;1.05;;
19167;SDS011;9716;53.114;18.040;2023-06-22T10:32:52;1.67;;;1.30;;
19167;SDS011;9716;53.114;18.040;2023-06-22T10:35:20;2.33;;;1.45;;
19167;SDS011;9716;53.114;18.040;2023-06-22T10:37:50;1.25;;;1.15;;
19167;SDS011;9716;53.114;18.040;2023-06-22T10:40:21;1.92;;;1.48;;
19167;SDS011;9716;53.114;18.040;2023-06-22T10:42:49;2.20;;;1.27;;
19167;SDS011;9716;53.114;18.040;2023-06-22T10:45:18;1.20;;;1.10;;
19167;SDS011;9716;53.114;18.040;2023-06-22T10:47:46;2.95;;;1.27;;
19167;SDS011;9716;53.114;18.040;2023-06-22T10:50:15;1.50;;;1.15;;
19167;SDS011;9716;53.114;18.040;2023-06-22T10:52:47;1.38;;;1.20;;
19167;SDS011;9716;53.114;18.040;2023-06-22T10:55:17;1.40;;;1.30;;
19167;SDS011;9716;53.114;18.040;2023-06-22T10:57:46;3.75;;;1.38;;
19167;SDS011;9716;53.114;18.040;2023-06-22T11:00:15;1.83;;;1.10;;
19167;SDS011;9716;53.114;18.040;2023-06-22T11:02:44;3.28;;;1.23;;
19167;SDS011;9716;53.114;18.040;2023-06-22T11:05:13;2.17;;;1.15;;
19167;SDS011;9716;53.114;18.040;2023-06-22T11:07:42;1.23;;;0.98;;
19167;SDS011;9716;53.114;18.040;2023-06-22T11:10:12;2.70;;;1.90;;
19167;SDS011;9716;53.114;18.040;2023-06-22T11:12:42;1.75;;;1.30;;
19167;SDS011;9716;53.114;18.040;2023-06-22T11:15:11;3.00;;;1.27;;
19167;SDS011;9716;53.114;18.040;2023-06-22T11:17:39;1.63;;;1.48;;
19167;SDS011;9716;53.114;18.040;2023-06-22T11:20:08;3.83;;;1.50;;
19167;SDS011;9716;53.114;18.040;2023-06-22T11:22:38;3.42;;;1.55;;
19167;SDS011;9716;53.114;18.040;2023-06-22T11:25:07;1.45;;;1.20;;
19167;SDS011;9716;53.114;18.040;2023-06-22T11:27:38;2.13;;;1.35;;
19167;SDS011;9716;53.114;18.040;2023-06-22T11:30:09;1.13;;;1.02;;
19167;SDS011;9716;53.114;18.040;2023-06-22T11:32:37;2.65;;;1.42;;
19167;SDS011;9716;53.114;18.040;2023-06-22T11:35:07;1.70;;;1.50;;
19167;SDS011;9716;53.114;18.040;2023-06-22T11:37:36;1.35;;;1.13;;
19167;SDS011;9716;53.114;18.040;2023-06-22T11:40:04;2.20;;;1.35;;
19167;SDS011;9716;53.114;18.040;2023-06-22T11:42:35;1.52;;;1.10;;
19167;SDS011;9716;53.114;18.040;2023-06-22T11:45:04;2.20;;;1.33;;
19167;SDS011;9716;53.114;18.040;2023-06-22T11:47:36;2.30;;;1.33;;
19167;SDS011;9716;53.114;18.040;2023-06-22T11:50:06;4.30;;;1.63;;
19167;SDS011;9716;53.114;18.040;2023-06-22T11:52:35;1.50;;;1.27;;
19167;SDS011;9716;53.114;18.040;2023-06-22T11:55:04;2.35;;;1.38;;
19167;SDS011;9716;53.114;18.040;2023-06-22T11:57:33;8.55;;;1.55;;
19167;SDS011;9716;53.114;18.040;2023-06-22T12:00:03;6.47;;;1.17;;
19167;SDS011;9716;53.114;18.040;2023-06-22T12:02:43;1.38;;;1.17;;
19167;SDS011;9716;53.114;18.040;2023-06-22T12:05:12;1.10;;;0.90;;
19167;SDS011;9716;53.114;18.040;2023-06-22T12:07:40;4.00;;;1.25;;
19167;SDS011;9716;53.114;18.040;2023-06-22T12:10:09;3.40;;;1.25;;
19167;SDS011;9716;53.114;18.040;2023-06-22T12:12:39;1.67;;;1.42;;
19167;SDS011;9716;53.114;18.040;2023-06-22T12:15:08;3.10;;;1.45;;
19167;SDS011;9716;53.114;18.040;2023-06-22T12:17:38;1.65;;;1.52;;
19167;SDS011;9716;53.114;18.040;2023-06-22T12:20:09;1.38;;;0.90;;
19167;SDS011;9716;53.114;18.040;2023-06-22T12:22:38;2.25;;;1.50;;
19167;SDS011;9716;53.114;18.040;2023-06-22T12:25:08;1.50;;;1.13;;
19167;SDS011;9716;53.114;18.040;2023-06-22T12:27:37;2.35;;;1.30;;
19167;SDS011;9716;53.114;18.040;2023-06-22T12:30:05;1.83;;;1.20;;
19167;SDS011;9716;53.114;18.040;2023-06-22T12:32:34;1.45;;;1.05;;
19167;SDS011;9716;53.114;18.040;2023-06-22T12:35:03;3.65;;;1.30;;
19167;SDS011;9716;53.114;18.040;2023-06-22T12:37:35;2.28;;;1.30;;
19167;SDS011;9716;53.114;18.040;2023-06-22T12:40:04;2.08;;;1.77;;
19167;SDS011;9716;53.114;18.040;2023-06-22T12:42:34;2.05;;;1.27;;
19167;SDS011;9716;53.114;18.040;2023-06-22T12:45:02;4.97;;;1.50;;
19167;SDS011;9716;53.114;18.040;2023-06-22T12:47:32;2.42;;;1.40;;
19167;SDS011;9716;53.114;18.040;2023-06-22T12:50:00;3.67;;;1.25;;
19167;SDS011;9716;53.114;18.040;2023-06-22T12:52:29;5.03;;;1.40;;
19167;SDS011;9716;53.114;18.040;2023-06-22T12:54:59;3.15;;;0.90;;
19167;SDS011;9716;53.114;18.040;2023-06-22T12:57:28;3.30;;;1.35;;
19167;SDS011;9716;53.114;18.040;2023-06-22T12:59:56;1.90;;;1.50;;
19167;SDS011;9716;53.114;18.040;2023-06-22T13:02:27;2.63;;;1.40;;
19167;SDS011;9716;53.114;18.040;2023-06-22T13:04:56;2.40;;;1.50;;
19167;SDS011;9716;53.114;18.040;2023-06-22T13:07:24;4.40;;;1.75;;
19167;SDS011;9716;53.114;18.040;2023-06-22T13:09:53;1.35;;;1.25;;
19167;SDS011;9716;53.114;18.040;2023-06-22T13:12:23;1.85;;;1.30;;
19167;SDS011;9716;53.114;18.040;2023-06-22T13:14:51;2.03;;;1.35;;
19167;SDS011;9716;53.114;18.040;2023-06-22T13:17:20;2.35;;;1.35;;
19167;SDS011;9716;53.114;18.040;2023-06-22T13:19:49;2.25;;;1.50;;
19167;SDS011;9716;53.114;18.040;2023-06-22T13:22:28;4.05;;;1.40;;
19167;SDS011;9716;53.114;18.040;2023-06-22T13:24:57;2.90;;;1.58;;
19167;SDS011;9716;53.114;18.040;2023-06-22T13:27:31;1.80;;;1.50;;
19167;SDS011;9716;53.114;18.040;2023-06-22T13:29:59;1.83;;;1.42;;
19167;SDS011;9716;53.114;18.040;2023-06-22T13:32:29;2.00;;;1.30;;
19167;SDS011;9716;53.114;18.040;2023-06-22T13:34:57;2.08;;;1.30;;
19167;SDS011;9716;53.114;18.040;2023-06-22T13:37:26;1.38;;;1.08;;
19167;SDS011;9716;53.114;18.040;2023-06-22T13:39:54;1.83;;;1.35;;
19167;SDS011;9716;53.114;18.040;2023-06-22T13:42:26;2.78;;;1.38;;
19167;SDS011;9716;53.114;18.040;2023-06-22T13:44:56;8.85;;;1.40;;
19167;SDS011;9716;53.114;18.040;2023-06-22T13:47:27;2.13;;;1.27;;
19167;SDS011;9716;53.114;18.040;2023-06-22T13:49:57;3.70;;;1.35;;
19167;SDS011;9716;53.114;18.040;2023-06-22T13:52:26;2.00;;;1.30;;
19167;SDS011;9716;53.114;18.040;2023-06-22T13:54:54;2.13;;;1.65;;
19167;SDS011;9716;53.114;18.040;2023-06-22T13:57:23;4.38;;;1.75;;
19167;SDS011;9716;53.114;18.040;2023-06-22T13:59:51;4.53;;;1.33;;
19167;SDS011;9716;53.114;18.040;2023-06-22T14:02:21;5.47;;;1.40;;
19167;SDS011;9716;53.114;18.040;2023-06-22T14:04:50;2.63;;;1.45;;
19167;SDS011;9716;53.114;18.040;2023-06-22T14:07:19;2.10;;;1.42;;
19167;SDS011;9716;53.114;18.040;2023-06-22T14:09:47;2.35;;;1.52;;
19167;SDS011;9716;53.114;18.040;2023-06-22T14:12:16;2.63;;;1.40;;
19167;SDS011;9716;53.114;18.040;2023-06-22T14:14:45;1.50;;;1.40;;
19167;SDS011;9716;53.114;18.040;2023-06-22T14:17:14;6.20;;;1.73;;
19167;SDS011;9716;53.114;18.040;2023-06-22T14:19:43;3.42;;;1.67;;
19167;SDS011;9716;53.114;18.040;2023-06-22T14:22:12;3.53;;;1.58;;
19167;SDS011;9716;53.114;18.040;2023-06-22T14:24:40;1.27;;;1.17;;
19167;SDS011;9716;53.114;18.040;2023-06-22T14:27:09;9.30;;;1.83;;
19167;SDS011;9716;53.114;18.040;2023-06-22T14:29:37;2.00;;;1.60;;
19167;SDS011;9716;53.114;18.040;2023-06-22T14:32:06;1.85;;;1.40;;
19167;SDS011;9716;53.114;18.040;2023-06-22T14:34:35;2.67;;;2.08;;
19167;SDS011;9716;53.114;18.040;2023-06-22T14:37:07;2.40;;;1.60;;
19167;SDS011;9716;53.114;18.040;2023-06-22T14:39:36;4.45;;;1.55;;
19167;SDS011;9716;53.114;18.040;2023-06-22T14:42:06;1.45;;;1.17;;
19167;SDS011;9716;53.114;18.040;2023-06-22T14:44:34;3.15;;;1.77;;
19167;SDS011;9716;53.114;18.040;2023-06-22T14:47:03;1.77;;;1.10;;
19167;SDS011;9716;53.114;18.040;2023-06-22T14:49:32;1.88;;;1.50;;
19167;SDS011;9716;53.114;18.040;2023-06-22T14:52:02;1.88;;;1.02;;
19167;SDS011;9716;53.114;18.040;2023-06-22T14:54:34;2.53;;;1.30;;
19167;SDS011;9716;53.114;18.040;2023-06-22T14:57:02;2.53;;;1.20;;
19167;SDS011;9716;53.114;18.040;2023-06-22T14:59:31;2.58;;;1.20;;
19167;SDS011;9716;53.114;18.040;2023-06-22T15:01:59;2.88;;;1.50;;